Terminal Aerodrome Forecast
Issued by NWS Amarillo, TX

Home | Current Version | Previous Version | Text Only | Print | Product List | Glossary On
Versions: 1 2 3 4 5 6 7 8 9 10 11 12 13 14 15 16 17
000
FTUS44 KAMA 280109 AAA
TAFGUY
TAF AMD
KGUY 280109Z 2801/2824 02014KT P6SM BKN050
     FM280200 36017G26KT P6SM VCTS BKN060CB
      TEMPO 2802/2804 VRB35G45KT 3SM TSRA BR OVC020CB
     FM280500 35016KT P6SM SCT060 BKN150
     FM281200 36010KT P6SM SKC=

USA.gov is the U.S. government's official web portal to all federal, state and local government web resources and services.